Time,TemperatureF,DewpointF,PressureIn,WindDirection,WindDirectionDegrees,WindSpeedMPH,WindSpeedGustMPH,Humidity,HourlyPrecipIn,Conditions,Clouds,dailyrainin,SoftwareType,DateUTC
2013-03-04 00:01:00,33.3,22.8,29.50,ESE,112,8.5,8.5,65,0.00,,---,0.00,VWS V14.01,2013-03-04 06:01:00,
2013-03-04 00:06:00,33.3,22.8,29.50,SE,135,7.6,7.6,65,0.00,,---,0.00,VWS V14.01,2013-03-04 06:06:00,
2013-03-04 00:11:00,33.3,22.8,29.50,SE,135,5.6,6.0,65,0.00,,---,0.00,VWS V14.01,2013-03-04 06:11:00,
2013-03-04 00:16:00,33.3,22.8,29.50,SE,135,9.6,9.6,65,0.00,,---,0.00,VWS V14.01,2013-03-04 06:16:00,
2013-03-04 00:21:00,33.3,22.8,29.50,ESE,112,6.5,6.5,65,0.00,,---,0.00,VWS V14.01,2013-03-04 06:21:00,
2013-03-04 00:26:00,33.1,22.6,29.50,ESE,112,4.3,4.3,65,0.00,,---,0.00,VWS V14.01,2013-03-04 06:26:00,
2013-03-04 00:31:00,33.1,22.6,29.50,East,90,7.6,7.6,65,0.00,,---,0.00,VWS V14.01,2013-03-04 06:31:00,
2013-03-04 00:36:00,33.1,22.6,29.50,ESE,112,6.9,6.9,65,0.00,,---,0.00,VWS V14.01,2013-03-04 06:36:00,
2013-03-04 00:41:00,33.1,22.6,29.50,ESE,112,5.8,9.8,65,0.00,,---,0.00,VWS V14.01,2013-03-04 06:41:00,
2013-03-04 00:46:00,32.9,22.4,29.50,ESE,112,6.0,6.0,65,0.00,,---,0.00,VWS V14.01,2013-03-04 06:46:00,
2013-03-04 00:51:00,32.9,22.4,29.50,ESE,112,4.9,4.9,65,0.00,,---,0.00,VWS V14.01,2013-03-04 06:51:00,
2013-03-04 00:56:00,32.9,22.4,29.50,SE,135,10.5,10.5,65,0.00,,---,0.00,VWS V14.01,2013-03-04 06:56:00,
2013-03-04 01:01:00,32.9,22.4,29.50,East,90,8.7,8.7,65,0.00,,---,0.00,VWS V14.01,2013-03-04 07:01:00,
2013-03-04 01:06:00,32.9,22.4,29.50,ESE,112,10.1,10.1,65,0.00,,---,0.00,VWS V14.01,2013-03-04 07:06:00,
2013-03-04 01:11:00,32.9,22.4,29.50,East,90,6.5,10.7,65,0.00,,---,0.00,VWS V14.01,2013-03-04 07:11:00,
2013-03-04 01:16:00,32.9,22.4,29.50,SE,135,4.9,6.5,65,0.00,,---,0.00,VWS V14.01,2013-03-04 07:16:00,
2013-03-04 01:21:00,32.9,22.4,29.50,SE,135,9.0,9.0,65,0.00,,---,0.00,VWS V14.01,2013-03-04 07:21:00,
2013-03-04 01:26:00,32.7,22.3,29.47,ESE,112,5.6,5.6,65,0.00,,---,0.00,VWS V14.01,2013-03-04 07:26:00,
2013-03-04 01:31:00,32.9,22.4,29.47,SSE,158,5.4,9.8,65,0.00,,---,0.00,VWS V14.01,2013-03-04 07:31:00,
2013-03-04 01:36:00,32.7,22.3,29.47,ESE,112,8.1,8.1,65,0.00,,---,0.00,VWS V14.01,2013-03-04 07:36:00,
2013-03-04 01:41:00,32.9,22.4,29.50,SE,135,5.8,5.8,65,0.00,,---,0.00,VWS V14.01,2013-03-04 07:41:00,
2013-03-04 01:46:00,32.9,22.4,29.50,SSE,158,5.6,5.6,65,0.00,,---,0.00,VWS V14.01,2013-03-04 07:46:00,
2013-03-04 01:51:00,32.7,22.3,29.50,ESE,112,7.4,7.4,65,0.00,,---,0.00,VWS V14.01,2013-03-04 07:51:00,
2013-03-04 01:56:00,32.7,22.3,29.50,SE,135,5.4,5.4,65,0.00,,---,0.00,VWS V14.01,2013-03-04 07:56:00,
2013-03-04 02:01:00,32.7,22.3,29.50,ESE,112,9.4,9.4,65,0.00,,---,0.00,VWS V14.01,2013-03-04 08:01:00,
2013-03-04 02:06:00,32.7,22.3,29.50,ESE,112,8.1,9.4,65,0.00,,---,0.00,VWS V14.01,2013-03-04 08:06:00,
2013-03-04 02:11:00,32.7,22.3,29.50,SSE,158,4.9,4.9,65,0.00,,---,0.00,VWS V14.01,2013-03-04 08:11:00,
2013-03-04 02:16:00,32.7,22.3,29.50,ESE,112,5.4,5.4,65,0.00,,---,0.00,VWS V14.01,2013-03-04 08:16:00,
2013-03-04 02:21:00,32.5,22.1,29.50,SE,135,5.8,5.8,65,0.00,,---,0.00,VWS V14.01,2013-03-04 08:21:00,
2013-03-04 02:26:00,32.5,22.1,29.50,East,90,5.4,8.1,65,0.00,,---,0.00,VWS V14.01,2013-03-04 08:26:00,
2013-03-04 02:31:00,32.5,22.5,29.50,ESE,112,8.5,8.5,66,0.00,,---,0.00,VWS V14.01,2013-03-04 08:31:00,
2013-03-04 02:36:00,32.5,22.5,29.50,ESE,112,5.6,5.8,66,0.00,,---,0.00,VWS V14.01,2013-03-04 08:36:00,
2013-03-04 02:41:00,32.5,22.5,29.47,ESE,112,5.6,8.7,66,0.00,,---,0.00,VWS V14.01,2013-03-04 08:41:00,
2013-03-04 02:46:00,32.5,22.5,29.47,SE,135,3.8,5.4,66,0.00,,---,0.00,VWS V14.01,2013-03-04 08:46:00,
2013-03-04 02:51:00,32.4,22.3,29.47,ESE,112,5.4,5.4,66,0.00,,---,0.00,VWS V14.01,2013-03-04 08:51:00,
2013-03-04 02:56:00,32.4,22.3,29.47,South,180,5.6,5.6,66,0.00,,---,0.00,VWS V14.01,2013-03-04 08:56:00,
2013-03-04 03:01:00,32.2,22.1,29.47,SE,135,7.4,7.4,66,0.00,,---,0.00,VWS V14.01,2013-03-04 09:01:00,
2013-03-04 03:06:00,32.2,22.1,29.47,SSE,158,3.8,7.2,66,0.00,,---,0.00,VWS V14.01,2013-03-04 09:06:00,
2013-03-04 03:11:00,32.2,22.1,29.47,ESE,112,3.8,3.8,66,0.00,,---,0.00,VWS V14.01,2013-03-04 09:11:00,
2013-03-04 03:16:00,32.2,22.1,29.47,ESE,112,4.9,7.4,66,0.00,,---,0.00,VWS V14.01,2013-03-04 09:16:00,
2013-03-04 03:21:00,32.2,22.1,29.47,SE,135,7.2,10.3,66,0.00,,---,0.00,VWS V14.01,2013-03-04 09:21:00,
2013-03-04 03:26:00,32.2,22.1,29.47,ESE,112,3.8,3.8,66,0.00,,---,0.00,VWS V14.01,2013-03-04 09:26:00,
2013-03-04 03:31:00,32.2,22.1,29.47,ESE,112,5.8,7.4,66,0.00,,---,0.00,VWS V14.01,2013-03-04 09:31:00,
2013-03-04 03:36:00,32.2,22.1,29.47,ESE,112,8.7,8.7,66,0.00,,---,0.00,VWS V14.01,2013-03-04 09:36:00,
2013-03-04 03:41:00,32.2,22.1,29.47,ESE,112,9.8,9.8,66,0.00,,---,0.00,VWS V14.01,2013-03-04 09:41:00,
2013-03-04 03:46:00,32.2,22.5,29.47,ENE,68,3.6,3.6,67,0.00,,---,0.00,VWS V14.01,2013-03-04 09:46:00,
2013-03-04 03:51:00,32.2,22.5,29.47,ESE,112,5.4,5.4,67,0.00,,---,0.00,VWS V14.01,2013-03-04 09:51:00,
2013-03-04 03:56:00,32.0,22.3,29.47,ESE,112,6.5,6.5,67,0.00,,---,0.00,VWS V14.01,2013-03-04 09:56:00,
2013-03-04 04:01:00,32.0,22.3,29.47,ESE,112,3.1,6.3,67,0.00,,---,0.00,VWS V14.01,2013-03-04 10:01:00,
2013-03-04 04:06:00,32.0,22.3,29.47,East,90,3.8,3.8,67,0.00,,---,0.00,VWS V14.01,2013-03-04 10:06:00,
2013-03-04 04:11:00,32.0,22.3,29.47,ESE,112,2.5,6.0,67,0.00,,---,0.00,VWS V14.01,2013-03-04 10:11:00,
2013-03-04 04:16:00,32.2,22.5,29.47,ESE,112,4.3,4.3,67,0.00,,---,0.00,VWS V14.01,2013-03-04 10:16:00,
2013-03-04 04:21:00,32.2,22.5,29.47,ESE,112,3.8,4.3,67,0.00,,---,0.00,VWS V14.01,2013-03-04 10:21:00,
2013-03-04 04:27:00,32.2,22.5,29.47,SSE,158,3.4,3.4,67,0.00,,---,0.00,VWS V14.01,2013-03-04 10:27:00,
2013-03-04 04:32:00,32.2,22.5,29.47,SSE,158,4.0,4.0,67,0.00,,---,0.00,VWS V14.01,2013-03-04 10:32:00,
2013-03-04 04:37:00,32.2,22.5,29.47,SSE,158,5.4,9.2,67,0.00,,---,0.00,VWS V14.01,2013-03-04 10:37:00,
2013-03-04 04:42:00,32.2,22.5,29.47,ESE,112,3.1,3.1,67,0.00,,---,0.00,VWS V14.01,2013-03-04 10:42:00,
2013-03-04 04:47:00,32.2,22.5,29.47,ESE,112,3.4,7.4,67,0.00,,---,0.00,VWS V14.01,2013-03-04 10:47:00,
2013-03-04 04:52:00,32.2,22.5,29.47,ESE,112,4.3,4.3,67,0.00,,---,0.00,VWS V14.01,2013-03-04 10:52:00,
2013-03-04 04:57:00,32.2,22.5,29.47,ENE,68,3.1,3.1,67,0.00,,---,0.00,VWS V14.01,2013-03-04 10:57:00,
2013-03-04 05:02:00,32.2,22.5,29.47,ESE,112,3.4,3.4,67,0.00,,---,0.00,VWS V14.01,2013-03-04 11:02:00,
2013-03-04 05:07:00,32.2,22.5,29.47,East,90,3.1,3.6,67,0.00,,---,0.00,VWS V14.01,2013-03-04 11:07:00,
2013-03-04 05:12:00,32.0,22.3,29.50,ESE,112,5.6,5.6,67,0.00,,---,0.00,VWS V14.01,2013-03-04 11:12:00,
2013-03-04 05:17:00,32.2,22.5,29.50,East,90,4.9,4.9,67,0.00,,---,0.00,VWS V14.01,2013-03-04 11:17:00,
2013-03-04 05:22:00,32.2,22.5,29.50,East,90,3.4,5.4,67,0.00,,---,0.00,VWS V14.01,2013-03-04 11:22:00,
2013-03-04 05:27:00,32.0,22.3,29.47,SSE,158,5.4,5.8,67,0.00,,---,0.00,VWS V14.01,2013-03-04 11:27:00,
2013-03-04 05:32:00,32.2,22.5,29.47,SSE,158,5.8,5.8,67,0.00,,---,0.00,VWS V14.01,2013-03-04 11:32:00,
2013-03-04 05:37:00,32.0,22.3,29.47,East,90,3.4,3.4,67,0.00,,---,0.00,VWS V14.01,2013-03-04 11:37:00,
2013-03-04 05:42:00,32.2,22.5,29.47,ESE,112,3.4,5.6,67,0.00,,---,0.00,VWS V14.01,2013-03-04 11:42:00,
2013-03-04 05:47:00,32.0,22.3,29.47,ESE,112,3.6,3.8,67,0.00,,---,0.00,VWS V14.01,2013-03-04 11:47:00,
2013-03-04 05:52:00,32.2,22.5,29.47,ESE,112,2.7,2.7,67,0.00,,---,0.00,VWS V14.01,2013-03-04 11:52:00,
2013-03-04 05:57:00,32.0,22.3,29.50,ESE,112,2.9,2.9,67,0.00,,---,0.00,VWS V14.01,2013-03-04 11:57:00,
2013-03-04 06:02:00,32.0,22.3,29.50,ESE,112,4.3,6.0,67,0.00,,---,0.00,VWS V14.01,2013-03-04 12:02:00,
2013-03-04 06:07:00,32.0,22.3,29.50,ESE,112,5.4,5.4,67,0.00,,---,0.00,VWS V14.01,2013-03-04 12:07:00,
2013-03-04 06:12:00,32.0,22.3,29.47,ESE,112,7.6,7.6,67,0.00,,---,0.00,VWS V14.01,2013-03-04 12:12:00,
2013-03-04 06:17:00,32.0,22.3,29.47,SSE,158,3.4,3.4,67,0.00,,---,0.00,VWS V14.01,2013-03-04 12:17:00,
2013-03-04 06:22:00,32.0,22.3,29.47,ESE,112,4.0,5.8,67,0.00,,---,0.00,VWS V14.01,2013-03-04 12:22:00,
2013-03-04 06:27:00,32.0,22.3,29.47,ESE,112,7.8,7.8,67,0.00,,---,0.00,VWS V14.01,2013-03-04 12:27:00,
2013-03-04 06:32:00,31.8,22.1,29.47,SE,135,6.3,6.3,67,0.00,,---,0.00,VWS V14.01,2013-03-04 12:32:00,
2013-03-04 06:37:00,31.8,22.5,29.47,SE,135,4.9,4.9,68,0.00,,---,0.00,VWS V14.01,2013-03-04 12:37:00,
2013-03-04 06:42:00,31.8,22.5,29.47,SE,135,3.8,4.0,68,0.00,,---,0.00,VWS V14.01,2013-03-04 12:42:00,
2013-03-04 06:47:00,31.8,22.5,29.47,ESE,112,2.5,2.5,68,0.00,,---,0.00,VWS V14.01,2013-03-04 12:47:00,
2013-03-04 06:52:00,31.8,22.5,29.47,ESE,112,4.7,4.7,68,0.00,,---,0.00,VWS V14.01,2013-03-04 12:52:00,
2013-03-04 06:57:00,31.8,22.5,29.50,SE,135,4.0,4.0,68,0.00,,---,0.00,VWS V14.01,2013-03-04 12:57:00,
2013-03-04 07:02:00,31.8,22.5,29.50,East,90,4.9,4.9,68,0.00,,---,0.00,VWS V14.01,2013-03-04 13:02:00,
2013-03-04 07:07:00,31.8,22.5,29.50,ESE,112,4.9,4.9,68,0.00,,---,0.00,VWS V14.01,2013-03-04 13:07:00,
2013-03-04 07:12:00,31.8,22.5,29.50,East,90,3.6,5.4,68,0.00,,---,0.00,VWS V14.01,2013-03-04 13:12:00,
2013-03-04 07:17:00,32.0,22.6,29.50,ESE,112,2.7,2.7,68,0.00,,---,0.00,VWS V14.01,2013-03-04 13:17:00,
2013-03-04 07:22:00,32.0,22.6,29.50,East,90,2.9,2.9,68,0.00,,---,0.00,VWS V14.01,2013-03-04 13:22:00,
2013-03-04 07:27:00,32.2,22.8,29.50,East,90,2.7,3.4,68,0.00,,---,0.00,VWS V14.01,2013-03-04 13:27:00,
2013-03-04 07:32:00,32.5,23.2,29.50,NE,45,2.9,2.9,68,0.00,,---,0.00,VWS V14.01,2013-03-04 13:32:00,
2013-03-04 07:37:00,32.9,23.5,29.50,East,90,3.4,3.4,68,0.00,,---,0.00,VWS V14.01,2013-03-04 13:37:00,
2013-03-04 07:42:00,32.7,23.3,29.50,East,90,4.0,4.0,68,0.00,,---,0.00,VWS V14.01,2013-03-04 13:42:00,
2013-03-04 07:47:00,32.7,23.3,29.50,ESE,112,4.9,4.9,68,0.00,,---,0.00,VWS V14.01,2013-03-04 13:47:00,
2013-03-04 07:52:00,32.9,23.5,29.50,ESE,112,4.7,6.0,68,0.00,,---,0.00,VWS V14.01,2013-03-04 13:52:00,
2013-03-04 07:57:00,33.3,23.9,29.50,East,90,4.9,4.9,68,0.00,,---,0.00,VWS V14.01,2013-03-04 13:57:00,
2013-03-04 08:02:00,33.8,24.0,29.50,ESE,112,2.0,3.4,67,0.00,,---,0.00,VWS V14.01,2013-03-04 14:02:00,
2013-03-04 08:07:00,34.3,24.2,29.50,East,90,3.6,3.6,66,0.00,,---,0.00,VWS V14.01,2013-03-04 14:07:00,
2013-03-04 08:12:00,34.5,24.4,29.50,ESE,112,3.8,3.8,66,0.00,,---,0.00,VWS V14.01,2013-03-04 14:12:00,
2013-03-04 08:17:00,35.1,24.9,29.50,East,90,2.5,2.5,66,0.00,,---,0.00,VWS V14.01,2013-03-04 14:17:00,
2013-03-04 08:22:00,35.2,24.7,29.50,SSE,158,5.8,6.3,65,0.00,,---,0.00,VWS V14.01,2013-03-04 14:22:00,
2013-03-04 08:27:00,35.1,24.5,29.50,ESE,112,4.9,4.9,65,0.00,,---,0.00,VWS V14.01,2013-03-04 14:27:00,
2013-03-04 08:32:00,35.1,24.5,29.50,ESE,112,2.2,2.9,65,0.00,,---,0.00,VWS V14.01,2013-03-04 14:32:00,
2013-03-04 08:37:00,35.8,24.8,29.50,ENE,68,5.6,5.6,64,0.00,,---,0.00,VWS V14.01,2013-03-04 14:37:00,
2013-03-04 08:42:00,36.3,25.3,29.50,ESE,112,2.9,4.0,64,0.00,,---,0.00,VWS V14.01,2013-03-04 14:42:00,
2013-03-04 08:47:00,36.9,25.8,29.50,SE,135,7.8,7.8,64,0.00,,---,0.00,VWS V14.01,2013-03-04 14:47:00,
2013-03-04 08:52:00,37.2,25.8,29.50,East,90,2.9,4.3,63,0.00,,---,0.00,VWS V14.01,2013-03-04 14:52:00,
2013-03-04 08:57:00,37.9,26.1,29.50,SE,135,2.5,2.7,62,0.00,,---,0.00,VWS V14.01,2013-03-04 14:57:00,
2013-03-04 09:02:00,38.5,26.6,29.50,SSW,202,2.5,2.9,62,0.00,,---,0.00,VWS V14.01,2013-03-04 15:02:00,
2013-03-04 09:07:00,39.0,26.7,29.50,SSW,202,4.0,4.0,61,0.00,,---,0.00,VWS V14.01,2013-03-04 15:07:00,
2013-03-04 09:12:00,39.6,26.8,29.50,ESE,112,3.8,3.8,60,0.00,,---,0.00,VWS V14.01,2013-03-04 15:12:00,
2013-03-04 09:17:00,39.9,27.2,29.50,SSE,158,3.8,4.3,60,0.00,,---,0.00,VWS V14.01,2013-03-04 15:17:00,
2013-03-04 09:22:00,39.9,27.2,29.50,SSE,158,4.0,4.0,60,0.00,,---,0.00,VWS V14.01,2013-03-04 15:22:00,
2013-03-04 09:27:00,40.8,27.6,29.50,SSE,158,5.8,5.8,59,0.00,,---,0.00,VWS V14.01,2013-03-04 15:27:00,
2013-03-04 09:32:00,40.3,27.1,29.50,ESE,112,4.0,4.0,59,0.00,,---,0.00,VWS V14.01,2013-03-04 15:32:00,
2013-03-04 09:37:00,40.6,27.5,29.50,ESE,112,4.3,4.3,59,0.00,,---,0.00,VWS V14.01,2013-03-04 15:37:00,
2013-03-04 09:42:00,40.6,27.0,29.53,ESE,112,3.4,3.4,58,0.00,,---,0.00,VWS V14.01,2013-03-04 15:42:00,
2013-03-04 09:47:00,41.5,27.5,29.53,SE,135,3.1,3.1,57,0.00,,---,0.00,VWS V14.01,2013-03-04 15:47:00,
2013-03-04 09:52:00,42.1,28.0,29.53,ESE,112,1.3,1.3,57,0.00,,---,0.00,VWS V14.01,2013-03-04 15:52:00,
2013-03-04 09:57:00,42.1,28.0,29.53,SSE,158,1.3,1.3,57,0.00,,---,0.00,VWS V14.01,2013-03-04 15:57:00,
2013-03-04 10:02:00,42.8,28.2,29.53,SE,135,4.9,4.9,56,0.00,,---,0.00,VWS V14.01,2013-03-04 16:02:00,
2013-03-04 10:07:00,43.2,28.5,29.53,ESE,112,1.6,4.0,56,0.00,,---,0.00,VWS V14.01,2013-03-04 16:07:00,
2013-03-04 10:12:00,43.5,28.4,29.53,ENE,68,1.6,3.4,55,0.00,,---,0.00,VWS V14.01,2013-03-04 16:12:00,
2013-03-04 10:18:00,43.5,28.4,29.53,SSE,158,2.5,2.5,55,0.00,,---,0.00,VWS V14.01,2013-03-04 16:18:00,
2013-03-04 10:23:00,44.2,29.1,29.53,ESE,112,5.8,5.8,55,0.00,,---,0.00,VWS V14.01,2013-03-04 16:23:00,
2013-03-04 10:28:00,43.5,28.4,29.53,ESE,112,3.4,3.4,55,0.00,,---,0.00,VWS V14.01,2013-03-04 16:28:00,
2013-03-04 10:33:00,43.9,28.8,29.53,ENE,68,2.5,2.5,55,0.00,,---,0.00,VWS V14.01,2013-03-04 16:33:00,
2013-03-04 10:38:00,44.4,29.3,29.53,SE,135,1.1,1.1,55,0.00,,---,0.00,VWS V14.01,2013-03-04 16:38:00,
2013-03-04 10:42:00,44.6,29.0,29.53,SE,135,2.2,2.2,54,0.00,,---,0.00,VWS V14.01,2013-03-04 16:42:00,
2013-03-04 10:47:00,43.9,28.3,29.53,SSE,158,0.0,1.3,54,0.00,,---,0.00,VWS V14.01,2013-03-04 16:47:00,
2013-03-04 10:52:00,43.9,28.8,29.53,SSE,158,1.3,1.3,55,0.00,,---,0.00,VWS V14.01,2013-03-04 16:52:00,
2013-03-04 10:57:00,44.4,28.8,29.53,SSE,158,1.6,1.6,54,0.00,,---,0.00,VWS V14.01,2013-03-04 16:57:00,
2013-03-04 11:02:00,44.2,28.7,29.53,NW,315,2.0,2.0,54,0.00,,---,0.00,VWS V14.01,2013-03-04 17:02:00,
2013-03-04 11:07:00,45.1,29.0,29.53,NW,315,1.1,1.1,53,0.00,,---,0.00,VWS V14.01,2013-03-04 17:07:00,
2013-03-04 11:13:00,46.6,30.4,29.56,West,270,3.1,3.1,53,0.00,,---,0.00,VWS V14.01,2013-03-04 17:13:00,
2013-03-04 11:17:00,46.9,30.2,29.56,NW,315,2.7,2.7,52,0.00,,---,0.00,VWS V14.01,2013-03-04 17:17:00,
2013-03-04 11:22:00,47.3,30.6,29.56,North,0,0.0,0.0,52,0.00,,---,0.00,VWS V14.01,2013-03-04 17:22:00,
2013-03-04 11:27:00,48.4,31.6,29.56,NNW,338,2.2,2.2,52,0.00,,---,0.00,VWS V14.01,2013-03-04 17:27:00,
2013-03-04 11:32:00,48.6,31.3,29.56,NNW,338,0.9,0.9,51,0.00,,---,0.00,VWS V14.01,2013-03-04 17:32:00,
2013-03-04 11:38:00,48.2,30.9,29.56,NNW,338,3.1,3.1,51,0.00,,---,0.00,VWS V14.01,2013-03-04 17:38:00,
2013-03-04 11:43:00,47.8,30.6,29.56,NNW,338,2.9,2.9,51,0.00,,---,0.00,VWS V14.01,2013-03-04 17:43:00,
2013-03-04 11:48:00,46.6,29.4,29.56,ENE,68,3.4,3.4,51,0.00,,---,0.00,VWS V14.01,2013-03-04 17:48:00,
2013-03-04 11:53:00,46.9,29.8,29.56,NNW,338,3.6,3.6,51,0.00,,---,0.00,VWS V14.01,2013-03-04 17:53:00,
2013-03-04 11:58:00,46.9,29.8,29.56,WNW,292,3.8,3.8,51,0.00,,---,0.00,VWS V14.01,2013-03-04 17:58:00,
2013-03-04 12:03:00,47.3,30.6,29.56,West,270,4.5,4.5,52,0.00,,---,0.00,VWS V14.01,2013-03-04 18:03:00,
2013-03-04 12:08:00,46.2,29.1,29.56,NNW,338,5.8,5.8,51,0.00,,---,0.00,VWS V14.01,2013-03-04 18:08:00,
2013-03-04 12:13:00,45.9,29.2,29.56,WNW,292,5.4,5.4,52,0.00,,---,0.00,VWS V14.01,2013-03-04 18:13:00,
2013-03-04 12:18:00,45.3,28.8,29.56,NW,315,5.4,5.4,52,0.00,,---,0.00,VWS V14.01,2013-03-04 18:18:00,
2013-03-04 12:23:00,44.6,28.1,29.56,NNW,338,3.1,3.1,52,0.00,,---,0.00,VWS V14.01,2013-03-04 18:23:00,
2013-03-04 12:28:00,44.6,28.1,29.56,NNW,338,0.0,0.0,52,0.00,,---,0.00,VWS V14.01,2013-03-04 18:28:00,
2013-03-04 12:29:00,44.6,28.1,29.56,WNW,292,6.5,6.5,52,0.00,,---,0.00,VWS V14.01,2013-03-04 18:29:00,
2013-03-04 12:30:00,44.4,28.4,29.56,WNW,292,6.5,6.5,53,0.00,,---,0.00,VWS V14.01,2013-03-04 18:30:00,
2013-03-04 12:35:00,44.1,28.0,29.56,NNW,338,3.8,4.3,53,0.00,,---,0.00,VWS V14.01,2013-03-04 18:35:00,
2013-03-04 12:40:00,44.1,28.0,29.56,North,0,5.6,5.6,53,0.00,,---,0.00,VWS V14.01,2013-03-04 18:40:00,
2013-03-04 12:45:00,44.1,28.0,29.56,NW,315,3.6,3.6,53,0.00,,---,0.00,VWS V14.01,2013-03-04 18:45:00,
2013-03-04 12:50:00,43.5,27.5,29.56,WNW,292,2.9,4.3,53,0.00,,---,0.00,VWS V14.01,2013-03-04 18:50:00,
2013-03-04 12:55:00,43.7,28.2,29.56,NNE,22,5.8,5.8,54,0.00,,---,0.00,VWS V14.01,2013-03-04 18:55:00,
2013-03-04 13:00:00,43.3,27.8,29.56,WNW,292,7.4,7.4,54,0.00,,---,0.00,VWS V14.01,2013-03-04 19:00:00,
2013-03-04 13:05:00,42.4,27.4,29.56,WNW,292,4.5,4.7,55,0.00,,---,0.00,VWS V14.01,2013-03-04 19:05:00,
2013-03-04 13:10:00,42.3,27.3,29.56,NNW,338,3.6,3.6,55,0.00,,---,0.00,VWS V14.01,2013-03-04 19:10:00,
2013-03-04 13:15:00,41.9,26.9,29.56,WSW,248,6.0,6.0,55,0.00,,---,0.00,VWS V14.01,2013-03-04 19:15:00,
2013-03-04 13:20:00,41.2,26.2,29.56,NNW,338,3.1,3.1,55,0.00,,---,0.00,VWS V14.01,2013-03-04 19:20:00,
2013-03-04 13:25:00,40.8,26.4,29.56,NW,315,5.6,7.6,56,0.00,,---,0.00,VWS V14.01,2013-03-04 19:25:00,
2013-03-04 13:30:00,40.8,26.4,29.56,NNE,22,2.5,2.7,56,0.00,,---,0.00,VWS V14.01,2013-03-04 19:30:00,
2013-03-04 13:35:00,40.8,26.4,29.56,NNW,338,7.4,7.4,56,0.00,,---,0.00,VWS V14.01,2013-03-04 19:35:00,
2013-03-04 13:40:00,40.6,26.6,29.56,ENE,68,2.9,6.5,57,0.00,,---,0.00,VWS V14.01,2013-03-04 19:40:00,
2013-03-04 13:45:00,40.5,26.4,29.56,NNW,338,2.0,2.0,57,0.00,,---,0.00,VWS V14.01,2013-03-04 19:45:00,
2013-03-04 13:50:00,40.6,26.6,29.56,NW,315,2.5,4.0,57,0.00,,---,0.00,VWS V14.01,2013-03-04 19:50:00,
2013-03-04 13:55:00,40.8,26.8,29.56,ESE,112,8.5,8.5,57,0.00,,---,0.00,VWS V14.01,2013-03-04 19:55:00,
2013-03-04 14:00:00,41.5,27.0,29.56,SSW,202,2.7,5.8,56,0.00,,---,0.00,VWS V14.01,2013-03-04 20:00:00,
2013-03-04 14:05:00,41.2,26.7,29.56,NNW,338,3.4,3.4,56,0.00,,---,0.00,VWS V14.01,2013-03-04 20:05:00,
2013-03-04 14:10:00,41.0,27.0,29.56,WNW,292,5.8,5.8,57,0.00,,---,0.00,VWS V14.01,2013-03-04 20:10:00,
2013-03-04 14:15:00,41.2,27.1,29.56,NNW,338,7.4,7.4,57,0.00,,---,0.00,VWS V14.01,2013-03-04 20:15:00,
2013-03-04 14:20:00,41.2,27.1,29.56,SSW,202,2.7,2.7,57,0.00,,---,0.00,VWS V14.01,2013-03-04 20:20:00,
2013-03-04 14:26:00,42.4,28.3,29.56,SE,135,6.0,6.0,57,0.00,,---,0.00,VWS V14.01,2013-03-04 20:26:00,
2013-03-04 14:30:00,42.1,28.0,29.56,North,0,2.9,4.0,57,0.00,,---,0.00,VWS V14.01,2013-03-04 20:30:00,
2013-03-04 14:35:00,42.3,28.1,29.56,WNW,292,3.4,4.9,57,0.00,,---,0.00,VWS V14.01,2013-03-04 20:35:00,
2013-03-04 14:40:00,41.7,27.2,29.59,ENE,68,7.2,7.2,56,0.00,,---,0.00,VWS V14.01,2013-03-04 20:40:00,
2013-03-04 14:45:00,41.2,27.1,29.59,SSE,158,4.9,4.9,57,0.00,,---,0.00,VWS V14.01,2013-03-04 20:45:00,
2013-03-04 14:50:00,41.2,27.1,29.59,NW,315,3.6,4.3,57,0.00,,---,0.00,VWS V14.01,2013-03-04 20:50:00,
2013-03-04 14:55:00,40.5,26.9,29.59,ENE,68,2.9,2.9,58,0.00,,---,0.00,VWS V14.01,2013-03-04 20:55:00,
2013-03-04 15:00:00,40.5,26.9,29.59,NNW,338,3.4,3.4,58,0.00,,---,0.00,VWS V14.01,2013-03-04 21:00:00,
2013-03-04 15:05:00,40.3,26.7,29.59,East,90,2.9,2.9,58,0.00,,---,0.00,VWS V14.01,2013-03-04 21:05:00,
2013-03-04 15:11:00,40.1,26.5,29.59,NW,315,2.0,2.0,58,0.00,,---,0.00,VWS V14.01,2013-03-04 21:11:00,
2013-03-04 15:16:00,39.7,26.6,29.59,WSW,248,6.3,6.3,59,0.00,,---,0.00,VWS V14.01,2013-03-04 21:16:00,
2013-03-04 15:21:00,39.7,26.6,29.59,ESE,112,3.1,3.1,59,0.00,,---,0.00,VWS V14.01,2013-03-04 21:21:00,
2013-03-04 15:26:00,39.9,27.2,29.59,WNW,292,2.5,2.5,60,0.00,,---,0.00,VWS V14.01,2013-03-04 21:26:00,
2013-03-04 15:31:00,40.1,26.9,29.59,SSE,158,3.8,3.8,59,0.00,,---,0.00,VWS V14.01,2013-03-04 21:31:00,
2013-03-04 15:36:00,39.9,27.2,29.59,NE,45,3.1,3.1,60,0.00,,---,0.00,VWS V14.01,2013-03-04 21:36:00,
2013-03-04 15:41:00,40.3,27.5,29.59,NE,45,3.1,3.1,60,0.00,,---,0.00,VWS V14.01,2013-03-04 21:41:00,
2013-03-04 15:46:00,40.5,27.7,29.59,NE,45,8.1,8.1,60,0.00,,---,0.00,VWS V14.01,2013-03-04 21:46:00,
2013-03-04 15:51:00,40.3,27.5,29.59,NE,45,1.6,2.7,60,0.00,,---,0.00,VWS V14.01,2013-03-04 21:51:00,
2013-03-04 15:56:00,40.1,27.4,29.59,ENE,68,3.8,4.5,60,0.00,,---,0.00,VWS V14.01,2013-03-04 21:56:00,
2013-03-04 16:01:00,39.9,27.2,29.59,NNW,338,3.4,3.4,60,0.00,,---,0.00,VWS V14.01,2013-03-04 22:01:00,
2013-03-04 16:06:00,39.7,27.0,29.59,NE,45,5.4,5.4,60,0.00,,---,0.00,VWS V14.01,2013-03-04 22:06:00,
2013-03-04 16:11:00,39.6,26.8,29.59,NW,315,3.6,3.6,60,0.00,,---,0.00,VWS V14.01,2013-03-04 22:11:00,
2013-03-04 16:16:00,39.4,26.7,29.59,WNW,292,2.9,2.9,60,0.00,,---,0.00,VWS V14.01,2013-03-04 22:16:00,
2013-03-04 16:21:00,39.4,27.1,29.59,WNW,292,2.0,3.4,61,0.00,,---,0.00,VWS V14.01,2013-03-04 22:21:00,
2013-03-04 16:26:00,39.2,26.9,29.59,NW,315,4.3,4.3,61,0.00,,---,0.00,VWS V14.01,2013-03-04 22:26:00,
2013-03-04 16:31:00,39.2,26.9,29.59,NW,315,3.1,3.1,61,0.00,,---,0.00,VWS V14.01,2013-03-04 22:31:00,
2013-03-04 16:36:00,38.7,26.8,29.59,SSW,202,4.0,4.0,62,0.00,,---,0.00,VWS V14.01,2013-03-04 22:36:00,
2013-03-04 16:41:00,38.7,26.8,29.62,NW,315,3.1,3.1,62,0.00,,---,0.00,VWS V14.01,2013-03-04 22:41:00,
2013-03-04 16:46:00,38.7,26.8,29.62,WNW,292,2.7,3.8,62,0.00,,---,0.00,VWS V14.01,2013-03-04 22:46:00,
2013-03-04 16:51:00,38.5,27.0,29.62,SE,135,2.5,3.4,63,0.00,,---,0.00,VWS V14.01,2013-03-04 22:51:00,
2013-03-04 16:56:00,38.5,27.0,29.62,NNW,338,5.4,5.4,63,0.00,,---,0.00,VWS V14.01,2013-03-04 22:56:00,
2013-03-04 17:01:00,38.3,26.8,29.62,WNW,292,4.0,4.0,63,0.00,,---,0.00,VWS V14.01,2013-03-04 23:01:00,
2013-03-04 17:06:00,38.1,26.6,29.62,ENE,68,3.6,3.6,63,0.00,,---,0.00,VWS V14.01,2013-03-04 23:06:00,
2013-03-04 17:11:00,37.9,26.9,29.65,WNW,292,2.7,3.8,64,0.00,,---,0.00,VWS V14.01,2013-03-04 23:11:00,
2013-03-04 17:16:00,37.8,26.7,29.65,NW,315,6.3,6.3,64,0.00,,---,0.00,VWS V14.01,2013-03-04 23:16:00,
2013-03-04 17:21:00,37.6,26.5,29.65,NW,315,4.9,5.6,64,0.00,,---,0.00,VWS V14.01,2013-03-04 23:21:00,
2013-03-04 17:26:00,37.4,26.4,29.65,ENE,68,3.1,4.9,64,0.00,,---,0.00,VWS V14.01,2013-03-04 23:26:00,
2013-03-04 17:31:00,37.2,26.5,29.65,NNW,338,3.4,3.4,65,0.00,,---,0.00,VWS V14.01,2013-03-04 23:31:00,
2013-03-04 17:36:00,37.0,26.8,29.65,NNE,22,4.0,4.0,66,0.00,,---,0.00,VWS V14.01,2013-03-04 23:36:00,
2013-03-04 17:41:00,36.9,26.6,29.68,NNW,338,5.8,5.8,66,0.00,,---,0.00,VWS V14.01,2013-03-04 23:41:00,
2013-03-04 17:46:00,36.9,26.6,29.68,NNW,338,3.8,5.4,66,0.00,,---,0.00,VWS V14.01,2013-03-04 23:46:00,
2013-03-04 17:51:00,36.7,26.4,29.68,NE,45,5.6,5.6,66,0.00,,---,0.00,VWS V14.01,2013-03-04 23:51:00,
2013-03-04 17:56:00,36.7,26.4,29.68,North,0,5.4,5.4,66,0.00,,---,0.00,VWS V14.01,2013-03-04 23:56:00,
2013-03-04 18:01:00,36.7,26.4,29.68,North,0,2.5,2.7,66,0.00,,---,0.00,VWS V14.01,2013-03-05 00:01:00,
2013-03-04 18:06:00,36.7,26.4,29.68,NNE,22,2.7,4.3,66,0.00,,---,0.00,VWS V14.01,2013-03-05 00:06:00,
2013-03-04 18:11:00,36.7,26.4,29.68,NW,315,2.7,3.1,66,0.00,,---,0.00,VWS V14.01,2013-03-05 00:11:00,
2013-03-04 18:16:00,36.7,26.8,29.68,NW,315,3.4,4.0,67,0.00,,---,0.00,VWS V14.01,2013-03-05 00:16:00,
2013-03-04 18:21:00,36.7,26.8,29.68,East,90,5.8,5.8,67,0.00,,---,0.00,VWS V14.01,2013-03-05 00:21:00,
2013-03-04 18:26:00,36.7,26.8,29.71,NNW,338,6.0,6.0,67,0.00,,---,0.00,VWS V14.01,2013-03-05 00:26:00,
2013-03-04 18:31:00,36.7,26.8,29.71,NE,45,4.0,4.0,67,0.00,,---,0.00,VWS V14.01,2013-03-05 00:31:00,
2013-03-04 18:36:00,36.5,26.6,29.71,NW,315,2.5,2.5,67,0.00,,---,0.00,VWS V14.01,2013-03-05 00:36:00,
2013-03-04 18:41:00,36.5,26.6,29.71,North,0,3.4,3.4,67,0.00,,---,0.00,VWS V14.01,2013-03-05 00:41:00,
2013-03-04 18:46:00,36.3,26.8,29.71,NE,45,4.0,6.0,68,0.00,,---,0.00,VWS V14.01,2013-03-05 00:46:00,
2013-03-04 18:51:00,36.3,26.8,29.71,NNW,338,3.6,3.6,68,0.00,,---,0.00,VWS V14.01,2013-03-05 00:51:00,
2013-03-04 18:56:00,36.3,26.8,29.74,NNW,338,1.6,1.6,68,0.00,,---,0.00,VWS V14.01,2013-03-05 00:56:00,
2013-03-04 19:01:00,36.3,26.8,29.74,NNW,338,4.3,4.3,68,0.00,,---,0.00,VWS V14.01,2013-03-05 01:01:00,
2013-03-04 19:06:00,36.3,26.8,29.74,ESE,112,4.9,4.9,68,0.00,,---,0.00,VWS V14.01,2013-03-05 01:06:00,
2013-03-04 19:11:00,36.1,27.0,29.74,WNW,292,3.4,3.4,69,0.00,,---,0.00,VWS V14.01,2013-03-05 01:11:00,
2013-03-04 19:17:00,36.1,27.0,29.74,NNW,338,1.1,3.8,69,0.00,,---,0.00,VWS V14.01,2013-03-05 01:17:00,
2013-03-04 19:22:00,36.1,27.0,29.74,NNW,338,2.9,3.4,69,0.00,,---,0.00,VWS V14.01,2013-03-05 01:22:00,
2013-03-04 19:27:00,36.1,27.0,29.76,NNW,338,4.3,4.3,69,0.00,,---,0.00,VWS V14.01,2013-03-05 01:27:00,
2013-03-04 19:32:00,36.1,27.0,29.76,NNW,338,6.5,6.5,69,0.00,,---,0.00,VWS V14.01,2013-03-05 01:32:00,
2013-03-04 19:37:00,36.0,26.8,29.76,North,0,2.5,5.4,69,0.00,,---,0.00,VWS V14.01,2013-03-05 01:37:00,
2013-03-04 19:42:00,36.0,26.8,29.76,NNW,338,3.6,4.0,69,0.00,,---,0.00,VWS V14.01,2013-03-05 01:42:00,
2013-03-04 19:47:00,35.8,26.6,29.76,NW,315,4.9,4.9,69,0.00,,---,0.00,VWS V14.01,2013-03-05 01:47:00,
2013-03-04 19:52:00,35.8,26.6,29.76,NNE,22,2.5,2.5,69,0.00,,---,0.00,VWS V14.01,2013-03-05 01:52:00,
2013-03-04 19:57:00,35.6,26.8,29.74,NNW,338,3.6,3.6,70,0.00,,---,0.00,VWS V14.01,2013-03-05 01:57:00,
2013-03-04 20:02:00,35.6,26.8,29.74,SSW,202,3.8,4.7,70,0.00,,---,0.00,VWS V14.01,2013-03-05 02:02:00,
2013-03-04 20:07:00,35.6,26.8,29.74,WSW,248,3.4,3.4,70,0.00,,---,0.00,VWS V14.01,2013-03-05 02:07:00,
2013-03-04 20:12:00,35.4,26.6,29.74,NNW,338,3.1,4.3,70,0.00,,---,0.00,VWS V14.01,2013-03-05 02:12:00,
2013-03-04 20:17:00,35.4,26.6,29.74,NNW,338,3.4,3.4,70,0.00,,---,0.00,VWS V14.01,2013-03-05 02:17:00,
2013-03-04 20:22:00,35.4,27.0,29.74,WNW,292,2.5,2.5,71,0.00,,---,0.00,VWS V14.01,2013-03-05 02:22:00,
2013-03-04 20:27:00,35.4,27.0,29.74,SW,225,3.1,3.1,71,0.00,,---,0.00,VWS V14.01,2013-03-05 02:27:00,
2013-03-04 20:32:00,35.4,27.0,29.74,SSE,158,2.0,4.9,71,0.00,,---,0.00,VWS V14.01,2013-03-05 02:32:00,
2013-03-04 20:37:00,35.4,27.0,29.74,NNE,22,2.9,2.9,71,0.00,,---,0.00,VWS V14.01,2013-03-05 02:37:00,
2013-03-04 20:42:00,35.4,27.0,29.74,North,0,3.8,3.8,71,0.00,,---,0.00,VWS V14.01,2013-03-05 02:42:00,
2013-03-04 20:47:00,35.4,27.3,29.74,WNW,292,3.4,3.4,72,0.00,,---,0.00,VWS V14.01,2013-03-05 02:47:00,
2013-03-04 20:52:00,35.4,27.3,29.74,NNW,338,3.1,3.1,72,0.00,,---,0.00,VWS V14.01,2013-03-05 02:52:00,
2013-03-04 20:57:00,35.2,27.1,29.76,NNW,338,4.3,4.3,72,0.00,,---,0.00,VWS V14.01,2013-03-05 02:57:00,
2013-03-04 21:02:00,35.2,27.1,29.76,NW,315,2.7,5.6,72,0.00,,---,0.00,VWS V14.01,2013-03-05 03:02:00,
2013-03-04 21:07:00,35.2,27.1,29.76,SSE,158,4.0,4.0,72,0.00,,---,0.00,VWS V14.01,2013-03-05 03:07:00,
2013-03-04 21:12:00,35.1,27.0,29.76,NW,315,2.5,7.8,72,0.00,,---,0.00,VWS V14.01,2013-03-05 03:12:00,
2013-03-04 21:17:00,35.1,27.3,29.76,NNE,22,3.8,8.1,73,0.00,,---,0.00,VWS V14.01,2013-03-05 03:17:00,
2013-03-04 21:22:00,35.1,27.3,29.76,ENE,68,4.3,4.3,73,0.00,,---,0.00,VWS V14.01,2013-03-05 03:22:00,
2013-03-04 21:27:00,34.9,27.5,29.76,NW,315,3.1,3.1,74,0.00,,---,0.00,VWS V14.01,2013-03-05 03:27:00,
2013-03-04 21:32:00,34.9,27.8,29.76,NNE,22,1.3,1.3,75,0.00,,---,0.00,VWS V14.01,2013-03-05 03:32:00,
2013-03-04 21:37:00,34.7,27.6,29.76,NNE,22,3.4,3.4,75,0.00,,---,0.00,VWS V14.01,2013-03-05 03:37:00,
2013-03-04 21:42:00,34.5,27.4,29.76,North,0,3.4,3.4,75,0.00,,---,0.00,VWS V14.01,2013-03-05 03:42:00,
2013-03-04 21:47:00,34.5,27.4,29.76,NNW,338,2.0,2.0,75,0.00,,---,0.00,VWS V14.01,2013-03-05 03:47:00,
2013-03-04 21:52:00,34.5,27.4,29.76,NNE,22,2.2,3.6,75,0.00,,---,0.00,VWS V14.01,2013-03-05 03:52:00,
2013-03-04 21:57:00,34.3,27.2,29.79,NW,315,2.5,2.5,75,0.00,,---,0.00,VWS V14.01,2013-03-05 03:57:00,
2013-03-04 22:02:00,34.3,27.2,29.79,East,90,3.1,3.4,75,0.00,,---,0.00,VWS V14.01,2013-03-05 04:02:00,
2013-03-04 22:07:00,34.5,27.4,29.79,NNW,338,2.7,2.9,75,0.00,,---,0.00,VWS V14.01,2013-03-05 04:07:00,
2013-03-04 22:12:00,34.3,27.6,29.79,WSW,248,5.4,5.4,76,0.00,,---,0.00,VWS V14.01,2013-03-05 04:12:00,
2013-03-04 22:17:00,34.3,27.6,29.79,WNW,292,2.0,3.1,76,0.00,,---,0.00,VWS V14.01,2013-03-05 04:17:00,
2013-03-04 22:22:00,34.3,27.9,29.79,NNE,22,2.7,4.7,77,0.00,,---,0.00,VWS V14.01,2013-03-05 04:22:00,
2013-03-04 22:27:00,34.2,27.4,29.79,NNW,338,1.6,2.9,76,0.00,,---,0.00,VWS V14.01,2013-03-05 04:27:00,
2013-03-04 22:32:00,34.0,27.5,29.79,West,270,6.5,6.5,77,0.00,,---,0.00,VWS V14.01,2013-03-05 04:32:00,
2013-03-04 22:37:00,34.0,27.5,29.79,WNW,292,5.4,5.4,77,0.00,,---,0.00,VWS V14.01,2013-03-05 04:37:00,
2013-03-04 22:42:00,34.0,27.5,29.79,NNE,22,2.9,6.5,77,0.00,,---,0.00,VWS V14.01,2013-03-05 04:42:00,
2013-03-04 22:47:00,34.0,27.5,29.79,NNW,338,3.6,3.6,77,0.00,,---,0.00,VWS V14.01,2013-03-05 04:47:00,
2013-03-04 22:52:00,34.0,27.5,29.79,North,0,5.8,5.8,77,0.00,,---,0.00,VWS V14.01,2013-03-05 04:52:00,
2013-03-04 22:57:00,34.0,27.5,29.82,ESE,112,2.5,4.3,77,0.00,,---,0.00,VWS V14.01,2013-03-05 04:57:00,
2013-03-04 23:00:00,34.0,27.5,29.82,NNW,338,2.9,3.1,77,0.00,,---,0.00,VWS V14.01,2013-03-05 05:00:00,
2013-03-04 23:05:00,34.2,27.7,29.82,NNW,338,4.0,4.0,77,0.00,,---,0.00,VWS V14.01,2013-03-05 05:05:00,
2013-03-04 23:10:00,34.2,27.7,29.82,WNW,292,2.9,2.9,77,0.00,,---,0.00,VWS V14.01,2013-03-05 05:10:00,
2013-03-04 23:15:00,34.0,27.5,29.82,WNW,292,2.5,3.8,77,0.00,,---,0.00,VWS V14.01,2013-03-05 05:15:00,
2013-03-04 23:20:00,34.0,27.9,29.82,WNW,292,5.6,5.6,78,0.00,,---,0.00,VWS V14.01,2013-03-05 05:20:00,
2013-03-04 23:25:00,34.0,27.9,29.82,NNW,338,2.5,2.5,78,0.00,,---,0.00,VWS V14.01,2013-03-05 05:25:00,
2013-03-04 23:30:00,34.0,27.9,29.82,WNW,292,4.3,4.3,78,0.00,,---,0.00,VWS V14.01,2013-03-05 05:30:00,
2013-03-04 23:35:00,33.8,27.7,29.82,NW,315,3.6,3.6,78,0.00,,---,0.00,VWS V14.01,2013-03-05 05:35:00,
2013-03-04 23:40:00,33.8,27.0,29.82,West,270,6.0,6.0,76,0.00,,---,0.00,VWS V14.01,2013-03-05 05:40:00,
2013-03-04 23:45:00,33.8,26.4,29.82,NW,315,3.6,3.8,74,0.00,,---,0.00,VWS V14.01,2013-03-05 05:45:00,
2013-03-04 23:50:00,34.0,25.6,29.82,NW,315,4.0,4.0,71,0.00,,---,0.00,VWS V14.01,2013-03-05 05:50:00,
2013-03-04 23:55:00,34.0,23.8,29.82,NNW,338,5.6,7.6,66,0.00,,---,0.00,VWS V14.01,2013-03-05 05:55:00,